Time;durP1;ratioP1;P1;durP2;ratioP2;P2;SDS_P1;SDS_P2;PMS_P1;PMS_P2;Temp;Humidity;BMP_temperature;BMP_pressure;BME280_temperature;BME280_humidity;BME280_pressure;Samples;Min_cycle;Max_cycle;Signal;HPM_P1;HPM_P2
2023/06/27 00:00:58;;;;;;;10.33;7.03;;;;;;;18.66;96.71;100036.44;1447215;89;22505;-81
2023/06/27 00:03:24;;;;;;;7.70;6.90;;;;;;;18.61;97.38;100036.23;1455079;89;21368;-81
2023/06/27 00:06:00;;;;;;;12.60;7.63;;;;;;;18.56;97.31;100034.70;1441814;89;21666;-81
2023/06/27 00:08:24;;;;;;;8.57;7.33;;;;;;;18.52;98.05;100036.16;1459005;89;22343;-82
2023/06/27 00:10:50;;;;;;;10.07;7.80;;;;;;;18.49;98.49;100034.20;1450335;89;21714;-81
2023/06/27 00:13:17;;;;;;;8.73;7.73;;;;;;;18.48;98.74;100032.56;1454615;89;21442;-82
2023/06/27 00:15:43;;;;;;;12.03;7.20;;;;;;;18.46;99.66;100031.12;1439387;89;21493;-82
2023/06/27 00:18:10;;;;;;;13.13;8.23;;;;;;;18.46;99.75;100031.94;1449023;89;21353;-83
2023/06/27 00:20:36;;;;;;;10.57;7.23;;;;;;;18.46;99.77;100034.61;1443230;89;21390;-83
2023/06/27 00:23:24;;;;;;;12.13;7.43;;;;;;;18.47;99.89;100024.72;1452261;89;22395;-82
2023/06/27 00:25:50;;;;;;;8.97;7.77;;;;;;;18.47;99.90;100026.91;1464487;89;21479;-82
2023/06/27 00:28:16;;;;;;;10.70;7.77;;;;;;;18.54;99.76;100024.73;1441808;89;21434;-82
2023/06/27 00:30:43;;;;;;;10.60;8.23;;;;;;;18.57;99.89;100017.61;1455623;89;21747;-83
2023/06/27 00:33:09;;;;;;;8.50;7.63;;;;;;;18.61;99.64;100019.64;1461758;88;21488;-82
2023/06/27 00:35:38;;;;;;;10.83;8.50;;;;;;;18.63;99.50;100014.08;1459077;88;21427;-82
2023/06/27 00:38:05;;;;;;;11.83;8.00;;;;;;;18.64;99.34;100013.04;1460234;89;21464;-82
2023/06/27 00:44:19;;;;;;;12.77;8.20;;;;;;;18.61;99.17;100013.45;1448448;89;22149;-82
2023/06/27 00:46:50;;;;;;;9.40;7.63;;;;;;;18.59;99.13;100007.51;1456500;90;21457;-82
2023/06/27 00:49:18;;;;;;;8.98;7.80;;;;;;;18.58;99.14;100005.84;1457199;89;21331;-82
2023/06/27 00:51:48;;;;;;;15.53;9.17;;;;;;;18.59;99.10;100003.48;1447175;89;21486;-82
2023/06/27 00:54:17;;;;;;;11.20;8.65;;;;;;;18.60;98.90;100003.78;1456991;89;21383;-82
2023/06/27 00:56:43;;;;;;;15.37;9.00;;;;;;;18.57;98.92;100004.20;1443647;89;21375;-82
2023/06/27 00:59:10;;;;;;;9.53;7.93;;;;;;;18.55;98.81;99998.22;1454803;89;21435;-82
2023/06/27 01:01:38;;;;;;;10.90;9.03;;;;;;;18.51;98.90;99996.48;1452860;89;22343;-82
2023/06/27 01:04:05;;;;;;;10.70;7.17;;;;;;;18.50;98.83;99993.52;1455491;89;21390;-82
2023/06/27 01:06:54;;;;;;;9.33;8.30;;;;;;;18.52;99.00;99995.97;1450111;89;21353;-82
2023/06/27 01:09:50;;;;;;;8.53;7.53;;;;;;;18.54;98.82;99990.70;1449636;89;21510;-82
2023/06/27 01:12:57;;;;;;;9.47;7.07;;;;;;;18.57;98.58;99997.50;1450472;89;21450;-81
2023/06/27 01:15:24;;;;;;;8.73;7.40;;;;;;;18.56;98.29;99993.16;1456042;90;21508;-82
2023/06/27 01:17:51;;;;;;;11.60;8.00;;;;;;;18.54;97.84;99989.37;1444997;90;21405;-82
2023/06/27 01:20:19;;;;;;;13.03;8.57;;;;;;;18.51;97.79;99990.31;1447636;90;21412;-82
2023/06/27 01:22:51;;;;;;;9.17;7.67;;;;;;;18.47;98.13;99988.05;1452894;89;21559;-82
2023/06/27 01:25:17;;;;;;;10.23;7.53;;;;;;;18.43;98.15;99980.11;1451338;90;21568;-83
2023/06/27 01:27:43;;;;;;;11.80;7.40;;;;;;;18.41;98.30;99982.69;1446723;90;21612;-82
2023/06/27 01:30:10;;;;;;;11.87;7.83;;;;;;;18.37;98.35;99979.61;1449332;89;21404;-81
2023/06/27 01:32:48;;;;;;;12.87;8.03;;;;;;;18.36;98.45;99987.88;1448396;89;21746;-82
2023/06/27 01:35:26;;;;;;;10.47;7.70;;;;;;;18.34;98.21;99980.55;1455430;89;21500;-82
2023/06/27 01:37:57;;;;;;;11.63;8.17;;;;;;;18.31;98.23;99980.45;1454628;89;22291;-81
2023/06/27 01:40:28;;;;;;;9.53;7.83;;;;;;;18.29;98.18;99977.15;1452064;90;22505;-79
2023/06/27 01:42:59;;;;;;;10.50;7.47;;;;;;;18.25;98.21;99975.41;1450828;88;21398;-79
2023/06/27 01:45:26;;;;;;;10.03;7.80;;;;;;;18.22;98.26;99979.03;1452627;89;22366;-77
2023/06/27 01:47:54;;;;;;;11.73;7.90;;;;;;;18.21;98.64;99976.02;1456278;90;21428;-79
2023/06/27 01:50:21;;;;;;;12.60;8.73;;;;;;;18.22;98.64;99969.66;1448821;90;21434;-80
2023/06/27 01:52:47;;;;;;;9.87;8.50;;;;;;;18.21;98.36;99968.84;1448231;89;21391;-80
2023/06/27 01:55:13;;;;;;;9.23;8.20;;;;;;;18.20;98.28;99968.52;1457395;88;22372;-80
2023/06/27 01:57:39;;;;;;;10.67;7.93;;;;;;;18.19;98.24;99970.08;1450499;89;21420;-79
2023/06/27 02:00:10;;;;;;;13.83;7.87;;;;;;;18.17;98.08;99973.47;1447198;89;21346;-82
2023/06/27 02:02:36;;;;;;;14.03;8.50;;;;;;;18.14;97.86;99973.89;1449746;89;21509;-82
2023/06/27 02:05:03;;;;;;;10.30;7.50;;;;;;;18.13;97.94;99976.27;1448081;90;22388;-83
2023/06/27 02:07:29;;;;;;;10.83;7.37;;;;;;;18.11;98.29;99976.98;1452235;90;21467;-82
2023/06/27 02:09:55;;;;;;;9.63;8.23;;;;;;;18.13;98.16;99980.28;1449100;90;21375;-82
2023/06/27 02:12:21;;;;;;;16.50;8.57;;;;;;;18.12;98.15;99979.44;1445073;90;22299;-82
2023/06/27 02:14:47;;;;;;;10.03;8.07;;;;;;;18.14;97.90;99980.06;1453057;90;21428;-83
2023/06/27 02:17:14;;;;;;;9.97;7.97;;;;;;;18.13;97.82;99972.25;1450794;89;21360;-81
2023/06/27 02:19:40;;;;;;;13.60;8.57;;;;;;;18.12;97.78;99973.27;1452344;90;21346;-82
2023/06/27 02:22:06;;;;;;;11.07;7.83;;;;;;;18.11;97.75;99968.95;1454527;89;21428;-82
2023/06/27 02:24:32;;;;;;;17.97;8.40;;;;;;;18.13;98.08;99966.89;1446705;89;21412;-81
2023/06/27 02:26:58;;;;;;;14.13;8.03;;;;;;;18.15;98.19;99963.47;1443031;90;21390;-82
2023/06/27 02:29:24;;;;;;;11.23;8.10;;;;;;;18.17;98.00;99962.75;1452489;90;21420;-81
2023/06/27 02:31:50;;;;;;;12.23;8.37;;;;;;;18.19;97.85;99962.05;1449430;90;21479;-82
2023/06/27 02:34:17;;;;;;;14.00;8.67;;;;;;;18.20;97.61;99961.00;1451698;88;21354;-81
2023/06/27 02:36:43;;;;;;;13.10;9.07;;;;;;;18.17;97.39;99962.75;1456401;89;21308;-80
2023/06/27 02:39:09;;;;;;;12.83;8.87;;;;;;;18.14;97.36;99960.50;1450882;89;21789;-79
2023/06/27 02:41:35;;;;;;;11.73;8.23;;;;;;;18.11;97.32;99961.73;1446645;90;21345;-80
2023/06/27 02:44:01;;;;;;;15.27;8.00;;;;;;;18.08;97.42;99963.48;1454235;89;21576;-80
2023/06/27 02:46:27;;;;;;;11.83;8.10;;;;;;;18.09;97.58;99968.33;1458735;90;22433;-81
2023/06/27 02:48:53;;;;;;;13.20;7.90;;;;;;;18.08;97.56;99966.69;1450920;88;21413;-80
2023/06/27 02:51:21;;;;;;;11.43;7.60;;;;;;;18.07;97.44;99965.88;1447069;90;21465;-81
2023/06/27 02:53:47;;;;;;;11.43;8.00;;;;;;;18.08;97.63;99964.01;1450661;88;21523;-80
2023/06/27 02:56:14;;;;;;;13.27;8.13;;;;;;;18.09;97.47;99969.66;1450641;88;22024;-81
2023/06/27 02:58:40;;;;;;;10.83;8.73;;;;;;;18.10;97.51;99972.15;1453774;90;21539;-80
2023/06/27 03:01:06;;;;;;;18.10;9.30;;;;;;;18.09;97.37;99971.00;1454753;90;22468;-81
2023/06/27 03:03:34;;;;;;;14.33;8.60;;;;;;;18.12;97.37;99975.94;1443436;89;21670;-81
2023/06/27 03:06:08;;;;;;;18.67;9.70;;;;;;;18.16;97.15;99979.87;1453506;90;21449;-80
2023/06/27 03:08:32;;;;;;;11.73;8.93;;;;;;;18.17;96.92;99985.52;1464596;90;21529;-80
2023/06/27 03:10:58;;;;;;;12.67;9.47;;;;;;;18.16;96.72;99983.89;1450629;90;21700;-80
2023/06/27 03:13:24;;;;;;;12.43;8.93;;;;;;;18.16;96.76;99987.38;1452995;88;22344;-80
2023/06/27 03:15:51;;;;;;;15.37;8.27;;;;;;;18.16;96.64;99987.38;1457369;89;21435;-80
2023/06/27 03:18:17;;;;;;;11.73;7.03;;;;;;;18.19;96.69;99987.48;1439900;89;21586;-81
2023/06/27 03:20:43;;;;;;;14.13;9.73;;;;;;;18.21;96.64;99986.25;1450231;89;21347;-81
2023/06/27 03:23:09;;;;;;;14.73;9.60;;;;;;;18.26;96.48;99994.98;1449509;90;21390;-81
2023/06/27 03:25:35;;;;;;;13.87;8.93;;;;;;;18.29;96.41;99995.90;1453777;88;21389;-81
2023/06/27 03:28:02;;;;;;;9.70;8.53;;;;;;;18.32;96.19;99991.98;1454825;90;22307;-81
2023/06/27 03:30:29;;;;;;;13.80;8.97;;;;;;;18.33;95.93;99985.61;1446894;88;21618;-81
2023/06/27 03:32:57;;;;;;;13.63;9.40;;;;;;;18.33;95.67;99978.40;1451824;88;21288;-81
2023/06/27 03:35:23;;;;;;;13.93;9.37;;;;;;;18.34;95.61;99977.87;1449274;90;21427;-81
2023/06/27 03:37:51;;;;;;;16.57;8.87;;;;;;;18.36;95.60;99973.14;1454599;90;21345;-81
2023/06/27 03:40:18;;;;;;;30.00;10.00;;;;;;;18.39;95.58;99978.08;1447325;90;21308;-81
2023/06/27 03:42:44;;;;;;;9.97;8.27;;;;;;;18.42;95.55;99979.81;1451558;90;22291;-81
2023/06/27 03:45:10;;;;;;;10.90;8.37;;;;;;;18.46;95.52;99978.34;1449813;89;21464;-81
2023/06/27 03:47:38;;;;;;;10.93;8.57;;;;;;;18.51;95.34;99983.09;1448100;88;22397;-81
2023/06/27 03:50:06;;;;;;;12.67;9.63;;;;;;;18.56;95.04;99985.12;1448990;89;21376;-80
2023/06/27 03:52:32;;;;;;;14.53;8.83;;;;;;;18.57;94.76;99984.11;1455900;89;21368;-82
2023/06/27 03:54:58;;;;;;;15.20;8.73;;;;;;;18.62;94.83;99986.98;1452272;89;21324;-81
2023/06/27 03:57:24;;;;;;;15.50;8.63;;;;;;;18.66;94.86;99982.84;1444819;88;21398;-81
2023/06/27 03:59:50;;;;;;;15.53;8.60;;;;;;;18.67;94.87;99983.98;1449469;89;21324;-82
2023/06/27 04:02:17;;;;;;;11.73;8.83;;;;;;;18.73;94.96;99975.61;1454292;89;21501;-89
2023/06/27 04:04:43;;;;;;;11.95;8.33;;;;;;;18.79;94.87;99976.13;1448273;89;21383;-88
2023/06/27 04:07:09;;;;;;;14.03;9.78;;;;;;;18.85;94.84;99976.62;1450035;89;21301;-88
2023/06/27 04:09:35;;;;;;;11.08;8.93;;;;;;;18.92;94.71;99974.72;1442414;89;22529;-88
2023/06/27 04:12:01;;;;;;;15.05;9.23;;;;;;;18.98;94.39;99977.59;1446940;89;21486;-88
2023/06/27 04:14:27;;;;;;;15.23;9.80;;;;;;;19.02;94.24;99973.42;1456159;89;21383;-87
2023/06/27 04:16:54;;;;;;;12.15;9.53;;;;;;;19.06;94.04;99973.33;1461352;89;21360;-88
2023/06/27 04:19:20;;;;;;;16.40;9.95;;;;;;;19.11;94.06;99976.19;1456202;89;21704;-89
2023/06/27 04:21:46;;;;;;;14.05;9.45;;;;;;;19.16;94.18;99972.33;1444265;89;22300;-89
2023/06/27 04:24:12;;;;;;;16.55;9.15;;;;;;;19.20;94.10;99977.58;1456528;89;21400;-81
2023/06/27 04:26:38;;;;;;;13.80;8.88;;;;;;;19.26;94.18;99980.74;1452085;89;21511;-80
2023/06/27 04:29:04;;;;;;;13.05;9.45;;;;;;;19.33;94.04;99982.88;1457013;89;21538;-80
2023/06/27 04:31:32;;;;;;;13.80;9.90;;;;;;;19.39;93.88;99982.02;1457363;89;21500;-80
2023/06/27 04:33:59;;;;;;;17.45;10.35;;;;;;;19.47;93.83;99985.46;1452217;89;21332;-80
2023/06/27 04:36:27;;;;;;;16.37;8.93;;;;;;;19.55;93.64;99992.73;1443092;89;21375;-80
2023/06/27 04:38:53;;;;;;;16.85;9.98;;;;;;;19.64;93.51;99995.98;1452724;89;21561;-80
2023/06/27 04:41:20;;;;;;;23.62;9.45;;;;;;;19.72;93.05;99998.95;1456216;89;21525;-80
2023/06/27 04:43:46;;;;;;;16.50;9.78;;;;;;;19.77;92.95;99999.13;1450624;89;21368;-81
2023/06/27 04:46:12;;;;;;;14.65;9.45;;;;;;;19.84;93.03;100006.08;1449469;89;22916;-79
2023/06/27 04:48:39;;;;;;;13.80;9.33;;;;;;;19.93;92.85;100008.50;1454405;90;21515;-81
2023/06/27 04:51:05;;;;;;;24.52;10.85;;;;;;;20.02;92.86;100005.83;1449331;90;21486;-81
2023/06/27 04:53:32;;;;;;;13.93;10.65;;;;;;;20.10;92.63;100003.40;1447171;90;21584;-79
2023/06/27 04:55:58;;;;;;;14.87;10.18;;;;;;;20.22;92.51;100004.31;1453461;90;21376;-80
2023/06/27 04:58:24;;;;;;;20.23;10.60;;;;;;;20.35;92.29;100002.85;1453275;90;21287;-87
2023/06/27 05:00:51;;;;;;;16.80;10.43;;;;;;;20.48;92.10;100001.88;1448711;90;21427;-86
2023/06/27 05:03:20;;;;;;;12.13;8.80;;;;;;;20.61;91.61;100004.47;1458584;90;22234;-85
2023/06/27 05:05:46;;;;;;;28.07;10.08;;;;;;;20.76;91.05;100004.62;1452472;90;21441;-87
2023/06/27 05:08:13;;;;;;;21.12;8.53;;;;;;;20.92;90.99;100008.06;1444459;90;22248;-88
2023/06/27 05:10:39;;;;;;;14.38;9.38;;;;;;;21.01;89.64;100008.58;1456416;90;21434;-88
2023/06/27 05:13:05;;;;;;;12.65;9.18;;;;;;;21.06;88.74;100009.54;1452868;90;21390;-90
2023/06/27 05:15:31;;;;;;;16.62;9.28;;;;;;;21.07;87.86;100004.97;1460866;90;22256;-85
2023/06/27 05:18:13;;;;;;;11.30;9.43;;;;;;;21.05;87.45;99997.11;1447848;88;21398;-88
2023/06/27 05:20:42;;;;;;;11.78;9.48;;;;;;;21.04;87.09;99999.52;1451841;90;21375;-89
2023/06/27 05:23:08;;;;;;;16.12;10.23;;;;;;;21.05;87.23;100017.30;1450796;89;21435;-87
2023/06/27 05:25:34;;;;;;;16.20;9.00;;;;;;;21.07;87.65;100019.77;1458184;90;21367;-87
2023/06/27 05:28:01;;;;;;;18.15;7.90;;;;;;;21.12;88.17;100014.54;1458382;90;21397;-87
2023/06/27 05:30:29;;;;;;;25.37;9.15;;;;;;;21.21;88.56;100032.54;1460577;90;21331;-87
2023/06/27 05:32:56;;;;;;;11.03;9.53;;;;;;;21.29;87.89;100024.97;1458092;90;21456;-87
2023/06/27 05:35:22;;;;;;;12.40;9.28;;;;;;;21.40;87.09;100020.69;1456902;88;21457;-87
2023/06/27 05:37:48;;;;;;;9.93;8.80;;;;;;;21.54;86.87;100024.84;1457541;90;21398;-89
2023/06/27 05:40:14;;;;;;;13.58;9.70;;;;;;;21.62;86.06;100011.58;1454622;88;21324;-89
2023/06/27 05:42:41;;;;;;;21.65;9.85;;;;;;;21.75;85.04;100029.40;1447813;89;21449;-89
2023/06/27 05:45:09;;;;;;;12.30;9.60;;;;;;;21.81;85.09;100035.23;1455616;89;22600;-88
2023/06/27 05:47:35;;;;;;;13.93;9.83;;;;;;;21.88;85.41;100033.78;1454094;89;22515;-88
2023/06/27 05:50:02;;;;;;;17.67;9.08;;;;;;;21.93;85.44;100037.42;1455516;90;21487;-88
2023/06/27 05:52:32;;;;;;;16.27;9.93;;;;;;;21.93;85.40;100031.22;1452003;90;21464;-88
2023/06/27 05:54:58;;;;;;;10.40;8.80;;;;;;;21.90;84.61;100027.11;1443538;90;22499;-88
2023/06/27 05:57:25;;;;;;;16.48;8.95;;;;;;;21.98;85.31;100040.75;1456107;90;21331;-89
2023/06/27 05:59:51;;;;;;;13.38;8.70;;;;;;;21.96;84.99;100041.00;1460743;89;21353;-86
2023/06/27 06:02:18;;;;;;;10.58;8.58;;;;;;;21.94;84.93;100036.89;1458591;89;22321;-89
2023/06/27 06:04:44;;;;;;;16.87;8.85;;;;;;;21.94;84.93;100034.20;1453158;90;21368;-88
2023/06/27 06:07:11;;;;;;;11.48;8.33;;;;;;;21.93;84.37;100027.17;1453764;90;21479;-88
2023/06/27 06:09:37;;;;;;;19.40;8.88;;;;;;;21.92;84.13;100034.41;1447337;90;21471;-88
2023/06/27 06:12:04;;;;;;;11.10;7.47;;;;;;;21.97;84.45;100031.03;1453721;90;21553;-88
2023/06/27 06:14:30;;;;;;;15.72;8.95;;;;;;;22.03;84.84;100030.10;1440986;90;22491;-87
2023/06/27 06:16:57;;;;;;;13.53;9.20;;;;;;;22.09;84.01;100027.28;1451507;90;21449;-87
2023/06/27 06:19:23;;;;;;;9.25;7.95;;;;;;;22.13;84.25;100024.97;1462834;90;21472;-89
2023/06/27 06:21:49;;;;;;;12.82;8.78;;;;;;;22.22;84.36;100022.78;1456963;89;21568;-87
2023/06/27 06:24:15;;;;;;;8.55;7.65;;;;;;;22.28;84.11;100019.95;1457794;90;22337;-87
2023/06/27 06:26:42;;;;;;;14.10;8.08;;;;;;;22.33;83.28;100021.97;1449523;90;21434;-87
2023/06/27 06:29:13;;;;;;;11.65;7.53;;;;;;;22.34;82.69;100024.13;1456403;90;21361;-86
2023/06/27 06:31:36;;;;;;;13.60;8.53;;;;;;;22.34;82.59;100023.59;1455424;90;21457;-88
2023/06/27 06:34:02;;;;;;;8.90;8.03;;;;;;;22.36;82.70;100018.80;1452691;90;21490;-88
2023/06/27 06:36:28;;;;;;;9.93;7.80;;;;;;;22.35;82.49;100013.09;1449435;90;21375;-88
2023/06/27 06:38:54;;;;;;;10.60;9.03;;;;;;;22.37;82.75;100005.59;1451435;90;21265;-87
2023/06/27 06:41:20;;;;;;;12.60;9.00;;;;;;;22.40;82.40;100002.42;1458535;90;21361;-88
2023/06/27 06:43:47;;;;;;;10.23;8.10;;;;;;;22.44;82.07;100004.96;1458550;89;21405;-88
2023/06/27 06:46:13;;;;;;;22.70;7.90;;;;;;;22.47;82.23;100015.78;1453120;89;21451;-88
2023/06/27 06:48:39;;;;;;;12.73;9.08;;;;;;;22.48;81.89;100018.78;1453114;90;21347;-87
2023/06/27 06:51:05;;;;;;;17.90;8.33;;;;;;;22.45;81.95;100014.69;1451146;90;21442;-88
2023/06/27 06:53:31;;;;;;;10.03;8.10;;;;;;;22.38;82.32;100023.94;1454949;89;21398;-88
2023/06/27 06:55:58;;;;;;;11.45;8.48;;;;;;;22.33;82.76;100025.16;1449108;90;21990;-88
2023/06/27 06:58:24;;;;;;;14.55;8.63;;;;;;;22.28;83.10;100027.23;1448698;90;22914;-87
2023/06/27 07:00:50;;;;;;;16.17;8.85;;;;;;;22.23;83.86;100040.05;1446812;90;21368;-87
2023/06/27 07:03:16;;;;;;;15.08;8.75;;;;;;;22.18;84.03;100045.84;1455815;90;21516;-87
2023/06/27 07:05:42;;;;;;;25.45;9.83;;;;;;;22.11;83.92;100053.20;1457888;89;21301;-87
2023/06/27 07:08:09;;;;;;;14.78;9.85;;;;;;;22.01;84.00;100055.10;1442376;90;22537;-87
2023/06/27 07:10:36;;;;;;;13.65;9.80;;;;;;;21.90;84.50;100048.66;1456561;90;21405;-88
2023/06/27 07:13:03;;;;;;;17.07;9.80;;;;;;;21.83;84.98;100051.97;1459323;89;21321;-88
2023/06/27 07:15:29;;;;;;;13.15;10.35;;;;;;;21.75;86.50;100037.48;1445563;89;21376;-88
2023/06/27 07:17:56;;;;;;;15.63;9.53;;;;;;;21.68;86.71;100043.50;1451989;90;21377;-88
2023/06/27 07:20:23;;;;;;;16.30;10.98;;;;;;;21.59;87.60;100029.02;1451857;89;22333;-89
2023/06/27 07:22:50;;;;;;;15.48;10.30;;;;;;;21.55;88.06;100022.46;1452238;89;21405;-88
2023/06/27 07:25:16;;;;;;;13.70;10.40;;;;;;;21.50;88.46;100020.98;1444542;89;22910;-87
2023/06/27 07:27:43;;;;;;;12.73;10.05;;;;;;;21.37;90.03;100021.15;1459194;88;21353;-89
2023/06/27 07:30:11;;;;;;;17.25;10.05;;;;;;;21.37;90.03;100021.15;1450636;90;21476;-89
2023/06/27 07:32:37;;;;;;;15.13;10.90;;;;;;;21.19;90.75;100003.97;1449982;90;21520;-89
2023/06/27 07:35:04;;;;;;;22.87;10.82;;;;;;;21.19;90.75;100003.97;1454397;90;22285;-88
2023/06/27 07:37:31;;;;;;;12.70;11.40;;;;;;;21.16;91.76;100013.02;1449650;90;21420;-89
2023/06/27 07:40:00;;;;;;;17.87;11.80;;;;;;;21.09;92.17;100014.47;1446789;90;21360;-88
2023/06/27 07:42:26;;;;;;;14.07;10.93;;;;;;;21.03;93.28;100018.56;1452970;90;22470;-87
2023/06/27 07:44:53;;;;;;;15.93;10.88;;;;;;;20.94;93.43;100009.98;1449406;90;21427;-88
2023/06/27 07:47:19;;;;;;;18.45;10.68;;;;;;;20.88;94.22;99998.78;1450544;89;21434;-88
2023/06/27 07:49:46;;;;;;;17.85;11.28;;;;;;;20.83;94.92;99971.73;1450718;89;22322;-86
2023/06/27 07:52:12;;;;;;;22.67;9.90;;;;;;;20.81;95.31;99955.03;1456493;89;21397;-87
2023/06/27 07:54:38;;;;;;;13.93;10.18;;;;;;;20.78;95.64;99948.23;1455523;90;21339;-85
2023/06/27 07:57:06;;;;;;;14.65;10.20;;;;;;;20.78;95.72;99947.41;1448311;90;22270;-88
2023/06/27 07:59:32;;;;;;;15.00;10.55;;;;;;;20.77;96.14;99943.06;1458229;90;21317;-89
2023/06/27 08:01:58;;;;;;;11.93;9.18;;;;;;;20.78;96.02;99952.79;1452055;90;22283;-90
2023/06/27 08:04:25;;;;;;;14.28;9.25;;;;;;;20.79;96.40;99960.61;1457485;89;21397;-91
2023/06/27 08:06:51;;;;;;;18.40;9.93;;;;;;;20.87;96.65;99947.39;1450849;90;21470;-91
2023/06/27 08:09:17;;;;;;;11.70;10.43;;;;;;;20.93;96.47;99935.19;1454063;90;22315;-89
2023/06/27 08:11:43;;;;;;;10.10;9.08;;;;;;;21.01;96.19;99933.25;1453146;89;21472;-89
2023/06/27 08:14:09;;;;;;;15.50;9.68;;;;;;;21.07;96.15;99921.05;1455374;88;21589;-85
2023/06/27 08:16:36;;;;;;;11.85;9.28;;;;;;;21.13;96.11;99926.84;1442873;90;21472;-88
2023/06/27 08:19:02;;;;;;;11.08;7.45;;;;;;;21.15;96.06;99936.86;1451109;90;21375;-89
2023/06/27 08:21:28;;;;;;;15.90;9.73;;;;;;;21.21;95.82;99943.73;1449617;90;21420;-89
2023/06/27 08:23:55;;;;;;;16.62;10.28;;;;;;;21.26;95.57;99946.53;1455396;90;21405;-89
2023/06/27 08:26:21;;;;;;;11.25;8.95;;;;;;;21.33;95.65;99945.40;1443538;90;21449;-88
2023/06/27 08:28:47;;;;;;;10.55;9.05;;;;;;;21.39;96.71;99943.69;1443216;90;21375;-89
2023/06/27 08:31:13;;;;;;;13.80;9.25;;;;;;;21.39;96.90;99951.23;1454510;90;21367;-87
2023/06/27 08:33:40;;;;;;;14.50;9.08;;;;;;;21.56;97.40;99958.13;1451507;90;21339;-84
2023/06/27 08:36:08;;;;;;;14.58;9.73;;;;;;;21.76;96.60;99962.37;1453508;89;22448;-86
2023/06/27 08:38:35;;;;;;;11.80;8.90;;;;;;;21.93;96.60;99967.38;1449041;89;21427;-87
2023/06/27 08:41:02;;;;;;;15.90;10.18;;;;;;;22.05;95.38;99968.19;1449812;90;21829;-88
2023/06/27 08:43:28;;;;;;;16.50;9.83;;;;;;;22.11;94.23;99967.78;1449749;90;21390;-88
2023/06/27 08:45:55;;;;;;;15.72;10.10;;;;;;;22.19;94.05;99978.25;1451096;90;22323;-88
2023/06/27 08:48:22;;;;;;;19.25;10.30;;;;;;;22.26;93.50;99982.16;1454910;89;21501;-90
2023/06/27 08:50:53;;;;;;;14.50;9.30;;;;;;;22.35;92.46;99977.23;1451278;88;21568;-89
2023/06/27 08:53:22;;;;;;;11.15;8.53;;;;;;;22.50;91.53;99974.89;1450836;90;21500;-89
2023/06/27 08:56:14;;;;;;;13.90;7.65;;;;;;;22.74;89.83;99976.46;1446431;90;22396;-91
2023/06/27 08:58:51;;;;;;;12.35;8.88;;;;;;;22.93;88.60;99974.42;1451895;90;21360;-93
2023/06/27 09:01:18;;;;;;;9.93;8.65;;;;;;;23.11;87.64;99974.80;1457247;88;22219;-93
2023/06/27 09:03:45;;;;;;;13.50;7.87;;;;;;;23.49;87.69;99977.36;1445718;88;21480;-92
2023/06/27 09:06:14;;;;;;;10.25;7.20;;;;;;;23.79;85.83;99970.32;1454297;88;22291;-93
2023/06/27 09:08:41;;;;;;;9.78;8.00;;;;;;;23.88;84.88;99977.52;1453623;88;22412;-93
2023/06/27 09:11:10;;;;;;;10.43;6.00;;;;;;;24.02;84.59;99967.16;1451847;88;21456;-92
2023/06/27 09:13:37;;;;;;;8.30;6.70;;;;;;;24.13;81.95;99970.30;1457077;90;21501;-93
2023/06/27 09:16:07;;;;;;;12.23;6.53;;;;;;;24.23;81.45;99967.77;1460443;90;21383;-91
2023/06/27 09:18:37;;;;;;;10.32;7.83;;;;;;;24.40;81.02;99963.67;1460683;88;21561;-91
2023/06/27 09:21:03;;;;;;;9.60;7.50;;;;;;;24.70;81.03;99961.91;1447192;89;21449;-92
2023/06/27 09:23:31;;;;;;;12.33;9.20;;;;;;;24.88;80.72;99968.88;1451561;90;22477;-91
2023/06/27 09:26:10;;;;;;;12.88;6.58;;;;;;;25.08;79.43;99977.77;1460610;90;21412;-91
2023/06/27 09:28:52;;;;;;;8.35;7.15;;;;;;;25.13;77.13;99976.47;1457272;90;21633;-91
2023/06/27 09:31:20;;;;;;;9.43;7.70;;;;;;;25.12;74.08;99977.55;1446846;90;22610;-89
2023/06/27 09:33:48;;;;;;;11.05;7.45;;;;;;;25.15;75.71;99977.08;1451011;88;21309;-91
2023/06/27 09:36:31;;;;;;;11.97;7.70;;;;;;;25.32;76.42;99968.86;1452417;88;21339;-88
2023/06/27 09:39:04;;;;;;;14.50;7.87;;;;;;;25.43;75.41;99969.75;1452958;89;21450;-87
2023/06/27 09:41:45;;;;;;;10.20;7.28;;;;;;;25.50;73.42;99976.33;1456425;88;21619;-89
2023/06/27 09:44:24;;;;;;;11.38;7.58;;;;;;;25.45;75.28;99974.38;1455600;88;21434;-87
2023/06/27 09:46:52;;;;;;;13.77;7.60;;;;;;;25.42;74.37;99973.54;1452593;88;21471;-89
2023/06/27 09:49:20;;;;;;;11.43;7.03;;;;;;;25.29;73.49;99968.02;1450518;89;21575;-88
2023/06/27 09:51:49;;;;;;;12.05;7.03;;;;;;;25.28;73.14;99969.07;1450684;90;21534;-89
2023/06/27 09:54:21;;;;;;;9.58;7.40;;;;;;;25.37;73.40;99958.59;1457484;89;21869;-88
2023/06/27 09:56:50;;;;;;;10.18;6.80;;;;;;;25.45;73.07;99963.55;1457616;88;22419;-88
2023/06/27 09:59:20;;;;;;;15.18;8.28;;;;;;;25.52;71.53;99961.97;1449637;89;22330;-88
2023/06/27 10:01:47;;;;;;;9.90;6.97;;;;;;;25.61;72.71;99961.80;1451323;89;21368;-88
2023/06/27 10:04:13;;;;;;;10.72;8.15;;;;;;;25.75;73.74;99960.80;1445596;90;21431;-89
2023/06/27 10:06:41;;;;;;;8.23;7.37;;;;;;;25.94;73.44;99963.43;1445657;90;22314;-88
2023/06/27 10:17:16;;;;;;;9.70;7.90;;;;;;;26.25;70.33;99960.92;1455799;89;21324;-89
2023/06/27 10:19:39;;;;;;;10.25;7.58;;;;;;;26.71;71.57;99956.55;1441020;90;22278;-86
2023/06/27 10:22:11;;;;;;;16.40;8.43;;;;;;;26.61;68.72;99952.43;1447676;90;21382;-86
2023/06/27 10:24:41;;;;;;;10.90;7.37;;;;;;;26.62;70.02;99954.63;1445981;89;21376;-87
2023/06/27 10:27:07;;;;;;;7.28;6.55;;;;;;;26.47;70.36;99953.45;1454391;89;22349;-89
2023/06/27 10:29:35;;;;;;;15.25;7.00;;;;;;;26.47;70.15;99950.73;1459538;88;21383;-87
2023/06/27 10:32:02;;;;;;;10.48;6.03;;;;;;;26.42;69.51;99951.25;1447686;90;21456;-88
2023/06/27 10:34:31;;;;;;;7.92;5.62;;;;;;;26.36;68.14;99953.13;1457145;89;21420;-91
2023/06/27 10:37:02;;;;;;;7.35;6.35;;;;;;;26.28;68.75;99948.19;1438760;90;22330;-88
2023/06/27 10:39:34;;;;;;;12.85;6.72;;;;;;;26.17;71.26;99965.48;1442678;90;21452;-89
2023/06/27 10:42:07;;;;;;;6.08;5.45;;;;;;;26.34;70.90;99960.70;1453054;89;21398;-90
2023/06/27 10:45:11;;;;;;;6.28;5.17;;;;;;;26.47;69.30;99956.16;1442089;90;21420;-91
2023/06/27 10:47:41;;;;;;;8.15;6.17;;;;;;;26.61;69.31;99956.50;1446554;89;21508;-91
2023/06/27 10:50:17;;;;;;;7.25;5.53;;;;;;;26.90;69.32;99952.83;1451265;90;21614;-88
2023/06/27 10:53:06;;;;;;;6.00;4.92;;;;;;;26.91;68.42;99957.17;1449040;90;21435;-87
2023/06/27 10:55:37;;;;;;;7.67;5.77;;;;;;;26.96;68.91;99961.27;1450615;89;21472;-87
2023/06/27 10:58:09;;;;;;;7.53;6.25;;;;;;;26.97;68.43;99958.81;1449936;89;22560;-90
2023/06/27 11:00:34;;;;;;;7.55;6.78;;;;;;;26.95;67.92;99966.40;1445432;90;22321;-90
2023/06/27 11:03:04;;;;;;;6.65;5.45;;;;;;;26.95;68.04;99967.75;1461319;89;21655;-88
2023/06/27 11:05:54;;;;;;;;;;;;;;;26.82;68.34;99969.63;1452581;89;21369;-87
2023/06/27 11:08:19;;;;;;;10.65;6.25;;;;;;;26.77;70.55;99962.82;1450160;90;20812;-87
2023/06/27 11:11:03;;;;;;;7.92;5.80;;;;;;;26.61;70.54;99953.79;1450042;90;22189;-87
2023/06/27 11:13:35;;;;;;;5.70;5.08;;;;;;;26.59;71.34;99959.23;1454321;89;21360;-88
2023/06/27 11:16:02;;;;;;;7.03;5.80;;;;;;;26.45;71.69;99962.38;1438862;90;22160;-87
2023/06/27 11:18:29;;;;;;;8.68;6.55;;;;;;;26.32;72.07;99966.92;1451193;90;21338;-88
2023/06/27 11:20:57;;;;;;;13.20;5.78;;;;;;;26.20;71.59;99956.81;1449478;90;22531;-89
2023/06/27 11:23:25;;;;;;;6.72;6.00;;;;;;;26.03;71.01;99954.27;1455557;89;21479;-88
2023/06/27 11:25:52;;;;;;;8.68;6.50;;;;;;;25.86;72.45;99949.00;1446146;90;21382;-87
2023/06/27 11:28:21;;;;;;;6.62;5.75;;;;;;;25.75;71.91;99943.19;1451013;89;22307;-89
2023/06/27 11:31:00;;;;;;;6.33;5.58;;;;;;;25.65;72.59;99940.69;1458695;90;22314;-88
2023/06/27 11:33:27;;;;;;;6.20;5.53;;;;;;;25.54;73.78;99945.73;1449603;90;21427;-89
2023/06/27 11:35:59;;;;;;;9.15;5.97;;;;;;;25.44;73.78;99943.77;1449070;89;22350;-90
2023/06/27 11:38:26;;;;;;;8.00;6.12;;;;;;;25.30;74.39;99939.04;1455298;88;21809;-91
2023/06/27 11:40:52;;;;;;;10.75;6.08;;;;;;;25.15;74.81;99932.40;1444241;90;21331;-91